createdAt,value
2019-05-22T00:03:17.703Z,5.40
2019-05-22T00:07:23.480Z,5.17
2019-05-22T00:11:29.128Z,5.20
2019-05-22T00:15:38.451Z,4.63
2019-05-22T00:19:42.081Z,5.28
2019-05-22T00:23:47.194Z,4.90
2019-05-22T00:27:53.801Z,5.13
2019-05-22T00:31:58.534Z,4.90
2019-05-22T00:36:04.149Z,5.10
2019-05-22T00:40:11.956Z,4.75
2019-05-22T00:44:18.213Z,4.53
2019-05-22T00:52:42.713Z,4.40
2019-05-22T00:56:51.721Z,4.28
2019-05-22T01:00:57.904Z,4.90
2019-05-22T01:09:09.778Z,4.45
2019-05-22T01:13:15.130Z,4.30
2019-05-22T01:17:21.321Z,4.23
2019-05-22T01:21:26.180Z,4.25
2019-05-22T01:25:31.197Z,4.40
2019-05-22T01:29:38.874Z,3.85
2019-05-22T01:33:47.909Z,4.15
2019-05-22T01:37:52.839Z,3.75
2019-05-22T01:42:00.639Z,3.72
2019-05-22T01:46:06.242Z,3.10
2019-05-22T01:50:15.719Z,3.33
2019-05-22T01:54:21.614Z,3.05
2019-05-22T01:58:28.037Z,3.65
2019-05-22T02:06:39.213Z,3.20
2019-05-22T02:10:45.845Z,3.30
2019-05-22T02:14:52.696Z,3.00
2019-05-22T02:18:57.410Z,2.90
2019-05-22T02:23:02.239Z,3.17
2019-05-22T02:27:07.949Z,3.00
2019-05-22T02:31:14.898Z,3.20
2019-05-22T02:35:21.617Z,3.15
2019-05-22T02:39:35.196Z,3.00
2019-05-22T02:43:39.778Z,3.10
2019-05-22T02:47:45.397Z,3.40
2019-05-22T02:51:52.763Z,2.80
2019-05-22T02:55:57.447Z,3.10
2019-05-22T03:00:03.137Z,3.00
2019-05-22T03:04:09.537Z,3.17
2019-05-22T03:08:14.260Z,3.00
2019-05-22T03:12:19.909Z,3.02
2019-05-22T03:16:26.583Z,3.27
2019-05-22T03:20:33.992Z,3.50
2019-05-22T03:24:39.568Z,3.30
2019-05-22T03:28:45.962Z,3.55
2019-05-22T03:36:55.612Z,3.20
2019-05-22T03:41:00.557Z,3.72
2019-05-22T03:45:07.878Z,3.60
2019-05-22T03:49:29.010Z,3.30
2019-05-22T03:53:23.288Z,3.85
2019-05-22T03:57:28.183Z,3.83
2019-05-22T04:01:34.316Z,3.62
2019-05-22T04:09:45.002Z,3.87
2019-05-22T04:13:50.515Z,3.77
2019-05-22T04:17:56.985Z,4.10
2019-05-22T04:22:02.246Z,3.20
2019-05-22T04:26:09.342Z,3.67
2019-05-22T04:30:14.444Z,3.65
2019-05-22T04:34:20.712Z,3.58
2019-05-22T04:42:30.822Z,3.30
2019-05-22T04:46:35.771Z,3.33
2019-05-22T04:50:40.590Z,3.15
2019-05-22T04:54:45.430Z,3.12
2019-05-22T04:58:50.101Z,2.87
2019-05-22T05:02:55.121Z,3.08
2019-05-22T05:06:59.869Z,2.92
2019-05-22T05:11:05.775Z,3.00
2019-05-22T05:15:11.412Z,2.60
2019-05-22T05:19:16.167Z,2.73
2019-05-22T05:23:21.020Z,2.70
2019-05-22T05:27:25.695Z,2.22
2019-05-22T05:31:30.703Z,2.58
2019-05-22T05:35:35.906Z,2.20
2019-05-22T05:39:43.946Z,2.00
2019-05-22T05:43:48.875Z,2.00
2019-05-22T05:47:53.583Z,2.10
2019-05-22T05:51:58.323Z,2.12
2019-05-22T05:56:16.455Z,1.90
2019-05-22T06:00:24.487Z,1.95
2019-05-22T06:04:35.031Z,1.80
2019-05-22T06:08:38.815Z,1.80
2019-05-22T06:12:44.034Z,1.73
2019-05-22T06:16:53.703Z,1.93
2019-05-22T06:21:03.964Z,1.80
2019-05-22T06:25:08.358Z,1.90
2019-05-22T06:29:15.834Z,1.80
2019-05-22T06:33:29.560Z,2.27
2019-05-22T06:37:53.686Z,2.10
2019-05-22T06:41:58.359Z,2.17
2019-05-22T06:46:03.680Z,2.50
2019-05-22T06:50:09.399Z,2.57
2019-05-22T06:54:14.362Z,2.40
2019-05-22T06:58:19.560Z,3.40
2019-05-22T07:02:24.689Z,4.67
2019-05-22T07:06:29.598Z,4.60
2019-05-22T07:10:35.692Z,4.37
2019-05-22T07:14:55.188Z,4.70
2019-05-22T07:18:59.829Z,3.98
2019-05-22T07:23:06.153Z,4.22
2019-05-22T07:27:19.682Z,4.47
2019-05-22T07:31:25.526Z,6.28
2019-05-22T07:35:49.934Z,4.53
2019-05-22T07:39:36.788Z,4.30
2019-05-22T07:43:42.247Z,5.33
2019-05-22T07:47:47.993Z,4.80
2019-05-22T07:52:00.682Z,4.80
2019-05-22T07:56:03.290Z,5.12
2019-05-22T08:00:08.160Z,4.70
2019-05-22T08:04:13.574Z,4.35
2019-05-22T08:08:19.283Z,4.67
2019-05-22T08:12:24.632Z,4.70
2019-05-22T08:16:29.675Z,5.20
2019-05-22T08:20:35.306Z,4.97
2019-05-22T08:24:41.801Z,5.28
2019-05-22T08:28:46.779Z,5.55
2019-05-22T08:32:53.520Z,5.37
2019-05-22T08:36:59.499Z,16.35
2019-05-22T08:41:08.489Z,7.50
2019-05-22T08:45:15.332Z,10.10
2019-05-22T08:49:20.194Z,7.70
2019-05-22T08:53:25.414Z,7.20
2019-05-22T08:57:30.553Z,7.37
2019-05-22T09:01:35.840Z,7.47
2019-05-22T09:05:40.471Z,6.87
2019-05-22T09:09:45.298Z,7.30
2019-05-22T09:13:49.986Z,7.28
2019-05-22T09:17:55.086Z,7.10
2019-05-22T09:22:01.137Z,6.35
2019-05-22T09:26:06.225Z,6.58
2019-05-22T09:30:11.605Z,6.80
2019-05-22T09:34:16.199Z,6.70
2019-05-22T09:38:21.169Z,6.60
2019-05-22T09:42:26.458Z,5.92
2019-05-22T09:46:32.149Z,6.60
2019-05-22T09:50:37.257Z,7.42
2019-05-22T09:54:42.297Z,6.97
2019-05-22T09:58:46.981Z,8.05
2019-05-22T10:02:51.660Z,7.25
2019-05-22T10:06:56.315Z,6.97
2019-05-22T10:11:01.269Z,7.08
2019-05-22T10:15:09.144Z,7.42
2019-05-22T10:19:14.307Z,14.13
2019-05-22T10:23:19.545Z,9.55
2019-05-22T10:27:24.953Z,9.43
2019-05-22T10:31:30.497Z,8.87
2019-05-22T10:35:35.999Z,9.38
2019-05-22T10:39:41.413Z,9.20
2019-05-22T10:43:46.793Z,9.38
2019-05-22T10:47:51.366Z,8.93
2019-05-22T10:51:55.983Z,9.23
2019-05-22T10:56:00.530Z,8.80
2019-05-22T11:00:11.662Z,9.58
2019-05-22T11:04:19.438Z,8.83
2019-05-22T11:08:24.643Z,8.80
2019-05-22T11:12:29.268Z,8.78
2019-05-22T11:16:34.278Z,8.93
2019-05-22T11:20:39.246Z,9.00
2019-05-22T11:24:43.977Z,8.83
2019-05-22T11:28:48.823Z,9.10
2019-05-22T11:32:53.723Z,9.98
2019-05-22T11:36:58.538Z,11.48
2019-05-22T11:41:03.421Z,10.30
2019-05-22T11:45:11.995Z,10.75
2019-05-22T11:49:16.613Z,11.80
2019-05-22T11:53:21.542Z,10.30
2019-05-22T11:57:26.514Z,10.40
2019-05-22T12:01:31.093Z,10.35
2019-05-22T12:05:36.261Z,9.75
2019-05-22T12:09:41.484Z,9.63
2019-05-22T12:13:46.870Z,10.17
2019-05-22T12:17:52.422Z,9.38
2019-05-22T12:21:56.974Z,9.47
2019-05-22T12:26:01.585Z,9.00
2019-05-22T12:30:07.672Z,8.83
2019-05-22T12:38:16.878Z,8.85
2019-05-22T12:42:21.924Z,8.90
2019-05-22T12:46:26.980Z,8.90
2019-05-22T12:50:32.525Z,9.45
2019-05-22T12:54:47.071Z,8.40
2019-05-22T12:58:44.646Z,8.45
2019-05-22T13:02:49.514Z,8.77
2019-05-22T13:06:54.506Z,8.53
2019-05-22T13:10:59.409Z,8.13
2019-05-22T13:15:10.305Z,9.30
2019-05-22T13:19:14.373Z,8.20
2019-05-22T13:27:24.329Z,8.55
2019-05-22T13:31:29.413Z,8.20
2019-05-22T13:35:34.889Z,11.33
2019-05-22T13:39:39.702Z,9.33
2019-05-22T13:43:45.085Z,9.30
2019-05-22T13:47:49.772Z,8.70
2019-05-22T13:51:54.649Z,8.83
2019-05-22T13:55:59.334Z,8.30
2019-05-22T14:00:09.501Z,8.98
2019-05-22T14:04:14.788Z,8.25
2019-05-22T14:08:19.709Z,8.13
2019-05-22T14:12:24.261Z,8.30
2019-05-22T14:16:29.174Z,9.05
2019-05-22T14:20:33.903Z,7.87
2019-05-22T14:24:38.528Z,7.60
2019-05-22T14:28:43.049Z,7.70
2019-05-22T14:32:47.765Z,7.05
2019-05-22T14:36:52.649Z,7.12
2019-05-22T14:40:57.765Z,7.65
2019-05-22T14:45:02.662Z,8.00
2019-05-22T14:49:07.258Z,8.48
2019-05-22T14:53:12.012Z,8.28
2019-05-22T14:57:17.291Z,8.00
2019-05-22T15:01:22.279Z,8.50
2019-05-22T15:05:26.898Z,7.95
2019-05-22T15:09:31.501Z,7.53
2019-05-22T15:13:36.189Z,8.08
2019-05-22T15:17:40.825Z,7.60
2019-05-22T15:21:45.419Z,7.80
2019-05-22T15:25:50.361Z,7.95
2019-05-22T15:29:55.008Z,8.45
2019-05-22T15:34:00.530Z,9.33
2019-05-22T15:38:10.165Z,10.10
2019-05-22T15:42:34.469Z,10.72
2019-05-22T15:46:39.967Z,10.65
2019-05-22T15:50:46.690Z,11.08
2019-05-22T15:54:51.806Z,10.38
2019-05-22T15:58:56.914Z,10.37
2019-05-22T16:03:07.695Z,10.30
2019-05-22T16:07:13.400Z,10.25
2019-05-22T16:11:20.074Z,9.93
2019-05-22T16:15:26.621Z,9.98
2019-05-22T16:19:32.537Z,12.70
2019-05-22T16:23:38.206Z,12.07
2019-05-22T16:27:43.963Z,13.20
2019-05-22T16:31:48.853Z,21.10
2019-05-22T16:35:54.253Z,42.38
2019-05-22T16:39:59.793Z,75.45
2019-05-22T16:44:05.063Z,112.20
2019-05-22T16:48:26.062Z,132.83
2019-05-22T16:52:17.987Z,139.70
2019-05-22T16:56:23.670Z,140.88
2019-05-22T17:00:29.355Z,123.02
2019-05-22T17:04:34.362Z,111.03
2019-05-22T17:08:38.999Z,98.95
2019-05-22T17:12:44.687Z,90.55
2019-05-22T17:16:50.734Z,83.62
2019-05-22T17:20:58.296Z,75.40
2019-05-22T17:25:04.251Z,68.72
2019-05-22T17:29:10.545Z,59.95
2019-05-22T17:33:15.728Z,56.60
2019-05-22T17:37:21.250Z,51.13
2019-05-22T17:41:27.733Z,50.00
2019-05-22T17:45:32.929Z,47.50
2019-05-22T17:49:38.366Z,46.70
2019-05-22T17:53:44.038Z,43.75
2019-05-22T17:57:49.237Z,40.43
2019-05-22T18:01:54.961Z,40.27
2019-05-22T18:06:00.703Z,38.33
2019-05-22T18:10:08.409Z,36.60
2019-05-22T18:14:13.502Z,35.43
2019-05-22T18:18:19.878Z,33.63
2019-05-22T18:22:24.526Z,32.83
2019-05-22T18:26:29.237Z,30.65
2019-05-22T18:30:35.595Z,30.88
2019-05-22T18:34:40.147Z,28.52
2019-05-22T18:38:44.765Z,27.77
2019-05-22T18:42:49.398Z,26.93
2019-05-22T18:46:55.833Z,25.32
2019-05-22T18:51:02.239Z,24.90
2019-05-22T18:55:08.398Z,22.30
2019-05-22T19:03:16.721Z,19.52
2019-05-22T19:07:21.261Z,18.62
2019-05-22T19:11:25.804Z,17.15
2019-05-22T19:15:31.287Z,16.70
2019-05-22T19:19:36.820Z,14.93
2019-05-22T19:23:41.462Z,14.27
2019-05-22T19:27:46.142Z,13.70
2019-05-22T19:31:50.690Z,12.73
2019-05-22T19:35:56.125Z,12.63
2019-05-22T19:40:00.973Z,11.70
2019-05-22T19:44:06.356Z,11.18
2019-05-22T19:48:11.283Z,10.33
2019-05-22T19:52:21.647Z,10.27
2019-05-22T19:56:24.577Z,10.18
2019-05-22T20:00:30.713Z,8.75
2019-05-22T20:04:36.029Z,8.90
2019-05-22T20:08:41.471Z,7.58
2019-05-22T20:12:46.603Z,7.87
2019-05-22T20:16:51.629Z,7.85
2019-05-22T20:20:56.717Z,7.83
2019-05-22T20:25:01.292Z,7.58
2019-05-22T20:29:06.769Z,7.37
2019-05-22T20:33:11.644Z,7.08
2019-05-22T20:37:16.153Z,7.00
2019-05-22T20:41:21.063Z,6.90
2019-05-22T20:45:27.297Z,7.25
2019-05-22T20:49:33.090Z,6.87
2019-05-22T20:53:53.085Z,6.75
2019-05-22T20:57:45.668Z,6.60
2019-05-22T21:01:50.373Z,7.05
2019-05-22T21:05:56.167Z,6.00
2019-05-22T21:10:01.245Z,7.10
2019-05-22T21:14:06.166Z,6.35
2019-05-22T21:18:12.630Z,6.15
2019-05-22T21:22:18.901Z,6.12
2019-05-22T21:26:23.959Z,6.65
2019-05-22T21:30:29.187Z,5.92
2019-05-22T21:34:33.810Z,6.23
2019-05-22T21:38:38.766Z,5.83
2019-05-22T21:42:45.726Z,5.12
2019-05-22T21:46:50.558Z,5.35
2019-05-22T21:50:55.772Z,5.62
2019-05-22T21:55:00.310Z,5.23
2019-05-22T21:59:05.714Z,5.60
2019-05-22T22:03:14.289Z,5.10
2019-05-22T22:07:21.061Z,5.55
2019-05-22T22:11:27.868Z,5.20
2019-05-22T22:15:34.045Z,4.70
2019-05-22T22:23:44.710Z,4.53
2019-05-22T22:31:54.293Z,3.87
2019-05-22T22:40:05.097Z,4.42
2019-05-22T22:44:11.134Z,4.78
2019-05-22T22:52:22.566Z,4.55
2019-05-22T22:56:29.291Z,4.37
2019-05-22T23:00:38.212Z,4.40
2019-05-22T23:04:44.953Z,4.20
2019-05-22T23:08:50.163Z,4.00
2019-05-22T23:12:54.779Z,4.30
2019-05-22T23:16:59.377Z,3.90
2019-05-22T23:21:02.925Z,4.50
2019-05-22T23:25:09.130Z,4.03
2019-05-22T23:33:19.592Z,4.20
2019-05-22T23:37:26.198Z,4.10
2019-05-22T23:41:32.381Z,4.53
2019-05-22T23:49:42.636Z,4.20
2019-05-22T23:53:48.385Z,4.22
2019-05-22T23:57:53.598Z,3.92
